RJTL(METAR)
10/21 05:00
METAR RJTL 202000Z 35004KT 310V020 9999 FEW030 11/09 Q1025 RMK
1CU030 A3028=
戻る
トップページへ戻る
IMOC Co,.Ltd.